Virgin Islands National Park, VI

3:05 AM AST on October 21, 2014 (GMT -0400)
NorthSide | Change Station
CLOSE
Current Station
Personal Weather Station
Location: St Thomas, VI
Elevation: 728 ft
Nearby Weather Stations

Elev 728 ft 18.36 °N, 64.94 °W | Updated 2 seconds ago

Clear
Clear
78.3 °F
Feels Like 81 °F
N
3.0
Wind Variable Wind from ESE
Gusts 9.0 mph

Today
High -- | Low -- °F
--% Chance of Precip.
Yesterday
High -- | Low -- °F
Precip. -- in
6:15 AM 5:53 PM
Waning Crescent, 7% visible
Pressure 29.92 in
Visibility 10.0 miles
Clouds Clear
Heat Index 81 °F
Dew Point 74 °F
Humidity 86%
Rainfall 0.00 in
Snow Depth Not available.
UV 0 out of 12
Pollen Not available.
Air Quality Not available.
Flu Activity No Activity
METAR TISX 210653Z 03005KT 10SM CLR 24/23 A2992 RMK AO2 SLP130 T02440228

More Conditions Fewer Conditions

Pressure 29.92 in
Visibility 10.0 miles
Clouds Clear
Heat Index 81 °F
Dew Point 74 °F
Humidity 86%
Rainfall 0.00 in
Snow Depth Not available.
UV 0 out of 12
Pollen Not available.
Air Quality Not available.
Flu Activity No Activity
METAR TISX 210653Z 03005KT 10SM CLR 24/23 A2992 RMK AO2 SLP130 T02440228

More Conditions Fewer Conditions

10-Day Weather Forecast

Almanac

Astronomy

Oct. 21, 2014 Rise Set
Actual Time 6:15 AM AST 5:53 PM AST
Civil Twilight 5:53 AM AST 6:15 PM AST
Nautical Twilight 5:27 AM AST 6:40 PM AST
Astronomical Twilight 5:02 AM AST 7:06 PM AST
Moon 4:14 AM AST 4:29 PM AST
Length of Visible Light 12h 22m
Length of Day
11h 37m
Tomorrow will be 0m 57s shorter.
Waning Crescent, 7% of the Moon is Illuminated
Today
Waning Crescent
Oct 23
New
Oct 30
First Quarter
Nov 6
Full
Nov 14
Last Quarter

Community

WunderPhotos

Upload Photos

1,763,619 photos uploaded!

Nearby

Snow Depth

Station Depth Elevation
No new snow has been reported.

Earthquake Activity

City Distance Mag. Time & Date
No recent earthquake activity has been reported nearby.
Minimum magnitude displayed is 2.5.

Coastal Water Temperatures

Place Temperature
Yabucoa Harbor, PR 84.0 °F
Esperanza, PR 84.9 °F
Charlotte Amalie, VI 84.9 °F

Nearby Weather Stations